createdAt,value
2022-07-29T00:01:58.841Z,37.41
2022-07-29T00:07:01.867Z,37.26
2022-07-29T00:12:04.967Z,37.65
2022-07-29T00:17:07.368Z,37.83
2022-07-29T00:22:10.137Z,38.61
2022-07-29T00:27:12.616Z,39.80
2022-07-29T00:32:15.189Z,40.68
2022-07-29T00:37:17.656Z,40.85
2022-07-29T00:42:20.085Z,40.78
2022-07-29T00:47:22.518Z,41.18
2022-07-29T00:52:24.933Z,41.03
2022-07-29T00:57:27.370Z,41.61
2022-07-29T01:02:29.815Z,42.07
2022-07-29T01:07:33.788Z,42.35
2022-07-29T01:12:38.838Z,42.17
2022-07-29T01:18:05.541Z,42.53
2022-07-29T01:23:08.516Z,42.08
2022-07-29T01:28:35.645Z,41.99
2022-07-29T01:33:53.094Z,42.32
2022-07-29T01:39:10.250Z,42.06
2022-07-29T01:44:19.315Z,41.61
2022-07-29T01:49:28.866Z,41.89
2022-07-29T01:54:40.365Z,41.83
2022-07-29T01:59:45.114Z,42.40
2022-07-29T02:04:50.321Z,42.43
2022-07-29T02:09:54.494Z,42.75
2022-07-29T02:15:01.171Z,42.79
2022-07-29T02:20:05.824Z,42.88
2022-07-29T02:25:13.941Z,43.00
2022-07-29T02:30:16.555Z,43.23
2022-07-29T02:35:20.137Z,43.54
2022-07-29T02:40:22.945Z,43.14
2022-07-29T02:45:29.965Z,43.28
2022-07-29T02:50:39.040Z,43.48
2022-07-29T02:56:04.665Z,43.13
2022-07-29T03:01:21.324Z,43.32
2022-07-29T03:06:38.345Z,44.08
2022-07-29T03:11:50.230Z,44.43
2022-07-29T03:16:54.233Z,44.50
2022-07-29T03:22:00.252Z,43.97
2022-07-29T03:27:04.557Z,44.02
2022-07-29T03:32:08.691Z,44.08
2022-07-29T03:37:11.573Z,44.38
2022-07-29T03:42:16.972Z,44.91
2022-07-29T03:47:43.693Z,45.58
2022-07-29T03:52:46.953Z,46.48
2022-07-29T03:57:51.077Z,46.98
2022-07-29T04:02:53.490Z,47.49
2022-07-29T04:07:56.020Z,47.91
2022-07-29T04:13:01.233Z,48.15
2022-07-29T04:18:03.810Z,48.20
2022-07-29T04:23:06.233Z,48.12
2022-07-29T04:28:09.979Z,48.18
2022-07-29T04:33:12.385Z,48.65
2022-07-29T04:38:15.891Z,47.80
2022-07-29T04:43:22.694Z,47.31
2022-07-29T04:48:28.676Z,47.24
2022-07-29T04:53:31.521Z,47.81
2022-07-29T04:58:36.716Z,47.85
2022-07-29T05:03:39.112Z,47.46
2022-07-29T05:08:41.951Z,48.07
2022-07-29T05:13:45.860Z,48.24
2022-07-29T05:18:49.489Z,47.98
2022-07-29T05:23:51.862Z,47.73
2022-07-29T05:28:55.375Z,46.99
2022-07-29T05:33:57.748Z,47.63
2022-07-29T05:39:00.131Z,47.36
2022-07-29T05:44:02.557Z,46.59
2022-07-29T05:49:05.163Z,46.88
2022-07-29T05:54:07.658Z,47.03
2022-07-29T05:59:18.199Z,47.54
2022-07-29T06:04:21.149Z,47.15
2022-07-29T06:09:24.295Z,46.91
2022-07-29T06:14:28.145Z,46.78
2022-07-29T06:19:30.628Z,45.57
2022-07-29T06:24:33.203Z,45.26
2022-07-29T06:29:35.704Z,45.20
2022-07-29T06:34:38.112Z,45.03
2022-07-29T06:39:40.530Z,44.69
2022-07-29T06:44:43.346Z,44.16
2022-07-29T06:49:46.747Z,44.02
2022-07-29T06:54:49.795Z,43.88
2022-07-29T06:59:52.106Z,43.96
2022-07-29T07:04:54.554Z,43.50
2022-07-29T07:09:56.928Z,43.29
2022-07-29T07:14:59.425Z,43.40
2022-07-29T07:20:01.800Z,42.61
2022-07-29T07:25:04.409Z,42.31
2022-07-29T07:30:08.208Z,41.81
2022-07-29T07:35:11.590Z,41.83
2022-07-29T07:40:18.479Z,41.08
2022-07-29T07:45:21.360Z,41.00
2022-07-29T07:50:23.752Z,40.88
2022-07-29T07:55:27.329Z,40.40
2022-07-29T08:00:29.792Z,40.36
2022-07-29T08:05:32.360Z,40.16
2022-07-29T08:10:54.427Z,39.99
2022-07-29T08:16:12.420Z,39.35
2022-07-29T08:21:17.491Z,39.98
2022-07-29T08:26:21.681Z,39.13
2022-07-29T08:31:24.094Z,39.45
2022-07-29T08:36:26.638Z,38.49
2022-07-29T08:41:29.108Z,38.48
2022-07-29T08:46:31.623Z,38.41
2022-07-29T08:51:49.383Z,38.05
2022-07-29T08:56:52.269Z,37.42
2022-07-29T09:02:01.288Z,37.41
2022-07-29T09:07:07.176Z,37.15
2022-07-29T09:12:12.893Z,36.82
2022-07-29T09:17:43.217Z,36.58
2022-07-29T09:22:48.697Z,36.18
2022-07-29T09:27:52.525Z,36.65
2022-07-29T09:33:04.393Z,36.58
2022-07-29T09:38:15.832Z,36.15
2022-07-29T09:43:18.219Z,36.64
2022-07-29T09:48:27.919Z,36.34
2022-07-29T09:53:38.072Z,35.79
2022-07-29T09:58:40.751Z,35.74
2022-07-29T10:03:53.595Z,34.94
2022-07-29T10:08:56.497Z,34.98
2022-07-29T10:13:59.648Z,34.72
2022-07-29T10:19:02.902Z,34.19
2022-07-29T10:24:06.591Z,33.60
2022-07-29T10:29:09.252Z,33.04
2022-07-29T10:34:31.351Z,31.59
2022-07-29T10:40:26.486Z,30.45
2022-07-29T10:45:31.570Z,29.96
2022-07-29T10:51:03.958Z,29.44
2022-07-29T10:56:25.293Z,28.68
2022-07-29T11:01:37.169Z,28.80
2022-07-29T11:07:06.139Z,28.51
2022-07-29T11:12:32.152Z,27.91
2022-07-29T11:17:59.475Z,28.77
2022-07-29T11:23:04.144Z,27.88
2022-07-29T11:28:18.475Z,27.98
2022-07-29T11:33:54.562Z,27.65
2022-07-29T11:39:36.279Z,27.44
2022-07-29T11:44:55.753Z,26.84
2022-07-29T11:49:59.952Z,26.35
2022-07-29T12:00:40.450Z,26.05
2022-07-29T12:05:47.921Z,25.91
2022-07-29T12:07:02.301Z,26.27
2022-07-29T12:11:21.192Z,26.10
2022-07-29T12:16:26.114Z,25.96
2022-07-29T12:21:54.046Z,25.41
2022-07-29T12:27:00.560Z,25.70
2022-07-29T12:32:04.637Z,25.33
2022-07-29T12:37:11.660Z,25.33
2022-07-29T12:42:18.372Z,25.53
2022-07-29T12:47:22.037Z,25.47
2022-07-29T12:52:32.479Z,25.35
2022-07-29T12:57:50.094Z,25.55
2022-07-29T13:03:00.287Z,25.48
2022-07-29T13:08:20.226Z,25.44
2022-07-29T13:13:24.257Z,25.89
2022-07-29T13:18:31.769Z,25.31
2022-07-29T13:23:38.448Z,25.32
2022-07-29T13:28:44.276Z,25.31
2022-07-29T13:33:46.786Z,25.50
2022-07-29T13:38:49.297Z,25.27
2022-07-29T13:43:51.624Z,24.95
2022-07-29T13:48:54.048Z,24.99
2022-07-29T13:53:56.452Z,24.68
2022-07-29T13:58:59.047Z,24.20
2022-07-29T14:04:01.582Z,24.09
2022-07-29T14:09:07.582Z,23.86
2022-07-29T14:14:11.667Z,23.31
2022-07-29T14:19:14.035Z,23.05
2022-07-29T14:24:21.464Z,23.13
2022-07-29T14:29:24.805Z,22.62
2022-07-29T14:34:41.045Z,22.84
2022-07-29T14:39:43.661Z,22.14
2022-07-29T14:44:46.096Z,21.76
2022-07-29T14:49:49.495Z,21.41
2022-07-29T14:54:51.901Z,21.43
2022-07-29T14:59:54.477Z,20.96
2022-07-29T15:04:57.152Z,20.55
2022-07-29T15:09:59.847Z,20.24
2022-07-29T15:15:02.246Z,19.84
2022-07-29T15:20:06.686Z,19.50
2022-07-29T15:25:09.612Z,19.19
2022-07-29T15:30:33.023Z,19.04
2022-07-29T15:35:40.125Z,18.24
2022-07-29T15:40:44.767Z,18.07
2022-07-29T15:46:07.265Z,17.49
2022-07-29T15:51:09.753Z,17.27
2022-07-29T15:56:12.419Z,17.31
2022-07-29T16:01:15.165Z,17.46
2022-07-29T16:06:18.388Z,17.54
2022-07-29T16:11:21.029Z,17.89
2022-07-29T16:16:23.729Z,17.51
2022-07-29T16:21:26.344Z,17.68
2022-07-29T16:26:29.215Z,17.97
2022-07-29T16:31:32.240Z,18.01
2022-07-29T16:36:34.673Z,17.31
2022-07-29T16:41:37.462Z,18.09
2022-07-29T16:46:41.465Z,17.81
2022-07-29T16:51:44.420Z,18.36
2022-07-29T16:56:46.773Z,19.10
2022-07-29T17:01:49.623Z,19.63
2022-07-29T17:06:52.162Z,20.67
2022-07-29T17:11:55.309Z,20.91
2022-07-29T17:17:03.371Z,20.87
2022-07-29T17:22:14.040Z,21.09
2022-07-29T17:27:21.060Z,21.82
2022-07-29T17:32:23.756Z,21.79
2022-07-29T17:37:26.107Z,22.24
2022-07-29T17:42:28.801Z,22.78
2022-07-29T17:47:31.143Z,22.98
2022-07-29T17:52:33.583Z,23.16
2022-07-29T17:57:36.346Z,24.62
2022-07-29T18:02:38.850Z,25.09
2022-07-29T18:07:41.557Z,25.46
2022-07-29T18:12:43.963Z,25.55
2022-07-29T18:17:57.824Z,25.93
2022-07-29T18:23:00.883Z,26.32
2022-07-29T18:28:04.936Z,26.33
2022-07-29T18:33:22.172Z,26.59
2022-07-29T18:38:24.924Z,26.92
2022-07-29T18:43:27.344Z,27.90
2022-07-29T18:48:29.708Z,28.49
2022-07-29T18:53:32.106Z,28.36
2022-07-29T18:58:39.859Z,29.22
2022-07-29T19:03:42.343Z,29.38
2022-07-29T19:08:44.808Z,29.55
2022-07-29T19:13:47.558Z,29.66
2022-07-29T19:18:50.013Z,30.13
2022-07-29T19:24:00.721Z,30.02
2022-07-29T19:29:10.080Z,30.20
2022-07-29T19:34:12.772Z,30.38
2022-07-29T19:39:16.035Z,30.17
2022-07-29T19:44:18.694Z,30.05
2022-07-29T19:49:21.342Z,29.96
2022-07-29T19:54:24.620Z,30.30
2022-07-29T19:59:29.540Z,29.99
2022-07-29T20:04:32.253Z,30.18
2022-07-29T20:09:35.857Z,30.53
2022-07-29T20:14:42.245Z,30.32
2022-07-29T20:19:45.081Z,30.76
2022-07-29T20:24:56.393Z,30.75
2022-07-29T20:29:58.932Z,31.11
2022-07-29T20:35:01.482Z,31.11
2022-07-29T20:40:05.227Z,31.47
2022-07-29T20:45:18.155Z,31.19
2022-07-29T20:50:24.189Z,31.02
2022-07-29T20:55:27.314Z,31.43
2022-07-29T21:00:30.011Z,32.36
2022-07-29T21:05:33.419Z,33.12
2022-07-29T21:10:35.984Z,33.91
2022-07-29T21:15:38.774Z,33.94
2022-07-29T21:20:41.332Z,34.39
2022-07-29T21:25:44.134Z,34.81
2022-07-29T21:30:46.498Z,34.77
2022-07-29T21:41:13.350Z,34.23
2022-07-29T21:46:17.414Z,34.32
2022-07-29T21:51:19.915Z,34.62
2022-07-29T21:56:23.613Z,35.24
2022-07-29T22:01:39.603Z,35.25
2022-07-29T22:06:42.171Z,35.65
2022-07-29T22:11:44.722Z,35.95
2022-07-29T22:16:48.269Z,36.34
2022-07-29T22:21:50.940Z,36.39
2022-07-29T22:26:54.434Z,36.34
2022-07-29T22:31:56.863Z,36.54
2022-07-29T22:36:59.948Z,36.61
2022-07-29T22:42:05.641Z,36.52
2022-07-29T22:47:08.109Z,37.17
2022-07-29T22:52:10.902Z,37.30
2022-07-29T22:57:13.294Z,37.13
2022-07-29T23:02:15.846Z,37.09
2022-07-29T23:07:20.272Z,37.17
2022-07-29T23:12:22.741Z,37.44
2022-07-29T23:17:25.353Z,37.41
2022-07-29T23:22:27.797Z,37.72
2022-07-29T23:27:30.522Z,38.12
2022-07-29T23:32:32.986Z,38.05
2022-07-29T23:37:35.825Z,37.87
2022-07-29T23:42:38.420Z,38.24
2022-07-29T23:47:41.810Z,38.21
2022-07-29T23:52:46.821Z,37.95
2022-07-29T23:57:49.697Z,38.25
